Detall de PIREP

Printer-friendly versionPDF version

[2012/04/22 09:34:00]
Flight IATA:CT2204
Pilot Number:042
Company ICAO:CAT
Aircraft Type:B738/F
PAX:120
Departing Airport: LFMP
Destination Airport: LFRB
Alternate Airport:LFPO
Online: VATSIM
Route:FJR UT24 GAI UY156 FISTO UN861 TUPAR UM616 ARE
Flight Level:F340
No Slew and time accel
No pause
Crash detect
Detect pilot in Cockpit between each 30 and 45 minutes
09:34 Zero fuel Weight: 91660 Lbs, Fuel Weight: 46053 Lbs
09:34 VATSIM:LFMP 220900Z VRB03KT 9999 BKN066 BKN250 13/04 Q1016 NOSIG
09:34 VATSIM:LFRB 220900Z 28013KT 250V310 9999 BKN025 SCT032 10/05 Q1010 NOSIG
09:34 VOICE CATALONIAN
09:39 Parking Brakes off
09:41 Take-off
09:41 Take off Weight: 137203 Lbs
09:41 Wind: 348º @ 005 Knots Heading: 329º
09:41 POS N42º 45´ 00´´ E002º 51´ 53´´
09:41 Gear Up: 164 Knots
09:41 Flaps:5 at 164 Knots
09:42 Flaps:4 at 157 Knots
09:42 Flaps:3 at 164 Knots
09:42 Flaps:2 at180 Knots
09:43 Flaps:1 at 204 Knots
09:43 Flaps:0 at 207 Knots
09:56 Wind:292º@047 Knots Heading: 281º Ground Speed: 413 Knots Altitude 31164 ft
09:58 TOC
09:58 Fuel Weight: 42044 Lb
10:11 Wind:275º@032 Knots Heading: 316º Ground Speed: 427 Knots Altitude 34078 ft
10:26 Wind:241º@037 Knots Heading: 321º Ground Speed: 434 Knots Altitude 34022 ft
10:41 Wind:308º@051 Knots Heading: 314º Ground Speed: 398 Knots Altitude 33963 ft
10:42 TOD
10:42 Fuel Weight: 37933 Lb
10:56 Wind:289º@029 Knots Heading: 311º Ground Speed: 280 Knots Altitude 10501 ft
11:02 Flaps:1 at 199 Knots
11:09 Flaps:2 at 179 Knots
11:10 Flaps:3 at 177 Knots
11:11 Wind:290º@013 Knots Heading: 252º Ground Speed: 161 Knots Altitude 3001 ft
11:11 Flaps:4 at 167 Knots
11:11 Flaps:5 at 164 Knots
11:11 Gear Down: 163 Knots
11:11 Flaps:6 at 161 Knots
11:11 Flaps:7 at 160 Knots
11:12 Flaps:8 at 158Knots
11:15 TouchDown:Rate -439 ft/min Speed: 117 Knots
11:16 VATSIM:LFRB 221100Z 30013KT 260V340 9999 BKN027 SCT034 11/04 Q1010 NOSIG
11:16 Land
11:16 Wind:298º@013 Knots
11:16 Heading: 254º
11:16 Flight Duration: 01:35
11:16 Landing Weight: 127946 Lbs
11:16 POS N48º 26´ 52´´ W004º 25´ 06´´
11:18 Parking brakes on
11:18 Block to Block Duration: 01:39
11:18 Final Fuel: 36153 Lbls
11:18 Spent Fuel: 9900 Lbls
11:18 Flight Length: 490 NM
11:18 TOD Land Length: 76 NM

Exportar CSV

Powered by Drupal - Modified by Danger4k